Time;durP1;ratioP1;P1;durP2;ratioP2;P2;SDS_P1;SDS_P2;PMS_P1;PMS_P2;Temp;Humidity;BMP_temperature;BMP_pressure;BME280_temperature;BME280_humidity;BME280_pressure;Samples;Min_cycle;Max_cycle;Signal;HPM_P1;HPM_P2
2023/12/10 00:00:41;;;;;;;41.30;26.40;;;22.80;42.70;;;;;;6148930;28;84075;-63
2023/12/10 00:03:41;;;;;;;41.55;26.55;;;22.80;42.70;;;;;;6153295;28;84161;-63
2023/12/10 00:06:42;;;;;;;44.53;27.30;;;22.80;42.90;;;;;;6161009;28;83116;-64
2023/12/10 00:09:42;;;;;;;44.22;29.85;;;22.70;43.10;;;;;;6152067;28;83883;-61
2023/12/10 00:12:43;;;;;;;42.65;28.17;;;22.70;42.70;;;;;;6148392;28;83651;-64
2023/12/10 00:15:43;;;;;;;43.35;28.60;;;22.70;42.80;;;;;;6164145;28;83501;-63
2023/12/10 00:18:44;;;;;;;46.25;28.95;;;22.70;42.80;;;;;;6149337;28;84279;-63
2023/12/10 00:21:44;;;;;;;43.33;29.35;;;22.60;42.70;;;;;;6148154;28;83492;-62
2023/12/10 00:24:45;;;;;;;44.55;27.77;;;22.60;42.90;;;;;;6153107;28;82999;-63
2023/12/10 00:27:46;;;;;;;43.78;28.38;;;22.60;43.00;;;;;;6168250;28;83124;-62
2023/12/10 00:30:47;;;;;;;43.95;26.65;;;22.60;43.10;;;;;;6157943;28;83711;-62
2023/12/10 00:33:48;;;;;;;41.53;27.98;;;22.60;43.10;;;;;;6158816;28;87480;-62
2023/12/10 00:36:48;;;;;;;44.17;28.42;;;22.60;42.80;;;;;;6160883;28;83767;-62
2023/12/10 00:39:49;;;;;;;44.63;28.42;;;22.60;42.50;;;;;;6168668;28;83183;-60
2023/12/10 00:42:51;;;;;;;43.13;28.73;;;22.60;42.50;;;;;;6162298;28;83171;-58
2023/12/10 00:45:52;;;;;;;43.67;29.10;;;22.50;42.20;;;;;;6162103;28;84453;-59
2023/12/10 00:48:53;;;;;;;40.15;27.48;;;22.60;42.50;;;;;;6162518;28;83373;-58
2023/12/10 00:51:53;;;;;;;45.25;28.33;;;22.60;42.20;;;;;;6160175;28;83304;-59
2023/12/10 00:54:54;;;;;;;40.97;27.17;;;22.50;42.10;;;;;;6167431;28;83804;-60
2023/12/10 00:57:54;;;;;;;42.90;27.92;;;22.50;42.00;;;;;;6168093;28;83732;-60
2023/12/10 01:00:55;;;;;;;42.55;27.65;;;22.50;41.70;;;;;;6167285;28;84730;-59
2023/12/10 01:03:55;;;;;;;38.38;26.10;;;22.60;41.60;;;;;;6160739;28;86099;-59
2023/12/10 01:06:56;;;;;;;40.83;26.50;;;22.50;41.70;;;;;;6174400;28;83345;-59
2023/12/10 01:09:56;;;;;;;37.72;25.27;;;22.50;41.80;;;;;;6172371;28;84449;-59
2023/12/10 01:12:57;;;;;;;36.85;24.00;;;22.50;41.40;;;;;;6151682;28;82968;-59
2023/12/10 01:15:57;;;;;;;41.08;26.17;;;22.50;41.50;;;;;;6163021;28;83261;-60
2023/12/10 01:18:58;;;;;;;38.50;24.50;;;22.50;41.40;;;;;;6151092;28;83378;-61
2023/12/10 01:21:58;;;;;;;36.03;22.77;;;22.50;41.70;;;;;;6160390;28;83263;-60
2023/12/10 01:25:00;;;;;;;34.05;22.90;;;22.50;41.40;;;;;;6167146;28;83214;-61
2023/12/10 01:28:00;;;;;;;36.45;23.00;;;22.40;41.60;;;;;;6151232;28;83033;-60
2023/12/10 01:31:02;;;;;;;38.42;24.10;;;22.50;41.60;;;;;;6155031;28;83268;-60
2023/12/10 01:34:03;;;;;;;36.38;22.77;;;22.40;41.30;;;;;;6152155;28;85364;-61
2023/12/10 01:37:03;;;;;;;31.65;20.73;;;22.40;41.20;;;;;;6150257;28;83815;-60
2023/12/10 01:40:05;;;;;;;33.22;22.27;;;22.40;42.00;;;;;;6158967;28;83068;-60
2023/12/10 01:43:06;;;;;;;31.13;20.75;;;22.40;41.90;;;;;;6149050;28;83479;-61
2023/12/10 01:46:06;;;;;;;30.50;20.48;;;22.40;42.40;;;;;;6164002;28;84027;-62
2023/12/10 01:49:07;;;;;;;32.40;20.67;;;22.40;42.30;;;;;;6149797;28;83437;-61
2023/12/10 01:52:08;;;;;;;30.70;20.05;;;22.40;42.20;;;;;;6150402;28;83145;-62
2023/12/10 01:55:12;;;;;;;31.75;20.85;;;22.40;42.00;;;;;;6152421;28;85394;-61
2023/12/10 01:58:13;;;;;;;33.40;20.63;;;22.30;41.90;;;;;;6155855;28;83040;-60
2023/12/10 02:01:13;;;;;;;28.88;18.60;;;22.30;42.00;;;;;;6151066;28;83099;-61
2023/12/10 02:04:14;;;;;;;26.63;17.25;;;22.30;42.10;;;;;;6152717;28;84023;-62
2023/12/10 02:07:14;;;;;;;25.52;17.17;;;22.30;42.10;;;;;;6162037;28;83766;-61
2023/12/10 02:10:15;;;;;;;26.15;17.67;;;22.30;42.00;;;;;;6150929;28;85520;-60
2023/12/10 02:13:15;;;;;;;32.05;20.00;;;22.30;42.10;;;;;;6154563;28;83531;-61
2023/12/10 02:16:16;;;;;;;23.85;16.55;;;22.30;41.30;;;;;;6150970;28;83530;-61
2023/12/10 02:19:17;;;;;;;26.10;17.50;;;22.30;41.70;;;;;;6150911;28;83317;-61
2023/12/10 02:22:18;;;;;;;24.67;16.63;;;22.30;41.30;;;;;;6163637;28;83149;-60
2023/12/10 02:25:18;;;;;;;29.83;18.33;;;22.30;42.30;;;;;;6150712;28;83003;-60
2023/12/10 02:28:22;;;;;;;25.35;16.35;;;22.30;41.50;;;;;;6152849;28;83237;-60
2023/12/10 02:31:24;;;;;;;25.85;16.85;;;22.30;41.50;;;;;;6150018;28;82805;-59
2023/12/10 02:34:24;;;;;;;25.13;16.42;;;22.30;41.80;;;;;;6167579;28;83209;-59
2023/12/10 02:37:25;;;;;;;22.35;15.38;;;22.30;41.10;;;;;;6161064;28;84284;-59
2023/12/10 02:40:25;;;;;;;23.92;15.80;;;22.30;41.40;;;;;;6173608;28;83285;-59
2023/12/10 02:43:26;;;;;;;23.38;15.52;;;22.30;41.60;;;;;;6161003;28;83346;-60
2023/12/10 02:46:26;;;;;;;27.42;15.45;;;22.30;41.80;;;;;;6162083;28;83149;-61
2023/12/10 02:49:27;;;;;;;23.52;15.52;;;22.20;41.20;;;;;;6152451;28;90027;-61
2023/12/10 02:52:27;;;;;;;20.92;14.90;;;22.30;42.00;;;;;;6152056;28;83248;-60
2023/12/10 02:55:28;;;;;;;19.65;13.80;;;22.30;41.20;;;;;;6150407;28;82893;-60
2023/12/10 02:58:29;;;;;;;22.05;14.48;;;22.20;41.40;;;;;;6167497;28;83419;-60
2023/12/10 03:01:29;;;;;;;21.85;14.52;;;22.30;41.30;;;;;;6167734;28;85878;-60
2023/12/10 03:04:30;;;;;;;23.55;15.60;;;22.30;41.70;;;;;;6149596;28;83127;-59
2023/12/10 03:07:30;;;;;;;21.85;14.40;;;22.20;41.40;;;;;;6172417;28;83511;-69
2023/12/10 03:10:31;;;;;;;25.58;15.85;;;22.20;41.30;;;;;;6159042;28;83541;-68
2023/12/10 03:13:31;;;;;;;23.73;15.85;;;22.20;40.70;;;;;;6164764;28;93824;-73
2023/12/10 03:16:32;;;;;;;24.08;15.73;;;22.20;40.60;;;;;;6173244;28;85271;-72
2023/12/10 03:19:32;;;;;;;25.10;16.48;;;22.30;40.50;;;;;;6150043;28;83177;-68
2023/12/10 03:22:33;;;;;;;20.60;13.75;;;22.30;40.80;;;;;;6173870;28;83668;-68
2023/12/10 03:25:33;;;;;;;21.02;14.45;;;22.30;40.70;;;;;;6165718;28;83467;-59
2023/12/10 03:28:34;;;;;;;25.33;15.90;;;22.30;40.70;;;;;;6160663;28;83431;-59
2023/12/10 03:31:34;;;;;;;23.15;15.23;;;22.30;40.40;;;;;;6152073;28;84316;-58
2023/12/10 03:34:35;;;;;;;24.80;15.40;;;22.30;40.50;;;;;;6150607;28;83610;-60
2023/12/10 03:37:35;;;;;;;26.13;16.15;;;22.20;40.60;;;;;;6161353;28;84149;-60
2023/12/10 03:40:36;;;;;;;26.45;16.30;;;22.20;40.60;;;;;;6153097;28;83341;-59
2023/12/10 03:43:36;;;;;;;27.30;16.60;;;22.20;40.60;;;;;;6160592;28;84002;-60
2023/12/10 03:46:37;;;;;;;27.25;17.83;;;22.20;40.40;;;;;;6157780;28;84267;-60
2023/12/10 03:49:37;;;;;;;25.67;16.40;;;22.20;40.20;;;;;;6156780;28;86218;-60
2023/12/10 03:52:38;;;;;;;22.38;15.68;;;22.20;40.30;;;;;;6167955;28;83248;-60
2023/12/10 03:55:38;;;;;;;24.45;15.68;;;22.20;40.20;;;;;;6169359;28;83486;-60
2023/12/10 03:58:39;;;;;;;24.58;16.30;;;22.20;40.10;;;;;;6171631;28;83236;-62
2023/12/10 04:01:42;;;;;;;24.92;16.95;;;22.20;39.60;;;;;;6170879;28;85274;-61
2023/12/10 04:04:43;;;;;;;28.85;17.75;;;22.20;39.60;;;;;;6146758;28;83621;-60
2023/12/10 04:07:43;;;;;;;27.52;17.25;;;22.20;40.00;;;;;;6161780;28;83087;-61
2023/12/10 04:10:44;;;;;;;26.23;16.35;;;22.30;39.30;;;;;;6151666;28;83262;-61
2023/12/10 04:13:44;;;;;;;26.42;15.85;;;22.30;38.80;;;;;;6154540;28;84161;-60
2023/12/10 04:16:45;;;;;;;26.17;16.00;;;22.40;39.00;;;;;;6148388;28;82956;-60
2023/12/10 04:19:45;;;;;;;22.15;14.20;;;22.40;39.10;;;;;;6151650;28;85994;-61
2023/12/10 04:22:46;;;;;;;21.85;14.18;;;22.40;39.00;;;;;;6160405;28;83373;-62
2023/12/10 04:25:46;;;;;;;20.83;14.85;;;22.40;39.00;;;;;;6150477;28;83495;-59
2023/12/10 04:28:47;;;;;;;20.67;13.82;;;22.50;39.80;;;;;;6159169;28;83782;-60
2023/12/10 04:31:47;;;;;;;23.00;15.15;;;22.50;39.10;;;;;;6151173;28;83733;-61
2023/12/10 04:34:48;;;;;;;22.73;14.13;;;22.50;39.10;;;;;;6148722;28;83134;-61
2023/12/10 04:37:48;;;;;;;21.42;13.88;;;22.50;39.10;;;;;;6148386;28;85170;-60
2023/12/10 04:40:49;;;;;;;20.30;13.05;;;22.60;39.10;;;;;;6151859;28;83334;-60
2023/12/10 04:43:49;;;;;;;21.40;14.07;;;22.60;39.20;;;;;;6166067;28;83197;-60
2023/12/10 04:46:51;;;;;;;22.05;13.65;;;22.60;39.20;;;;;;6170721;28;83013;-59
2023/12/10 04:49:51;;;;;;;17.85;12.57;;;22.60;39.30;;;;;;6164436;28;83329;-59
2023/12/10 04:52:52;;;;;;;19.77;12.40;;;22.60;39.40;;;;;;6155446;28;85789;-60
2023/12/10 04:55:52;;;;;;;17.55;12.23;;;22.70;39.50;;;;;;6159750;28;83165;-60
2023/12/10 04:58:53;;;;;;;17.58;11.63;;;22.70;39.60;;;;;;6157300;28;85568;-59
2023/12/10 05:01:53;;;;;;;15.20;10.88;;;22.70;39.70;;;;;;6153444;28;82834;-59
2023/12/10 05:04:54;;;;;;;18.60;12.10;;;22.70;39.60;;;;;;6160518;28;83523;-60
2023/12/10 05:07:54;;;;;;;16.42;11.25;;;22.70;39.70;;;;;;6147269;28;83092;-59
2023/12/10 05:10:55;;;;;;;18.05;11.85;;;22.70;39.70;;;;;;6148186;28;83680;-60
2023/12/10 05:13:56;;;;;;;16.40;11.40;;;22.70;39.80;;;;;;6153618;28;85032;-62
2023/12/10 05:16:56;;;;;;;17.17;11.07;;;22.70;39.60;;;;;;6154378;28;82996;-62
2023/12/10 05:19:57;;;;;;;15.55;11.05;;;22.70;39.60;;;;;;6166773;28;84485;-61
2023/12/10 05:22:57;;;;;;;16.98;11.23;;;22.80;39.30;;;;;;6157933;28;83354;-62
2023/12/10 05:25:58;;;;;;;19.02;11.55;;;22.80;39.40;;;;;;6129369;28;83487;-62
2023/12/10 05:28:58;;;;;;;16.33;10.85;;;22.80;39.20;;;;;;6159262;28;82819;-62
2023/12/10 05:31:59;;;;;;;16.88;11.32;;;22.90;39.30;;;;;;6157413;28;83461;-62
2023/12/10 05:35:00;;;;;;;16.48;11.38;;;22.80;39.30;;;;;;6157371;28;83310;-61
2023/12/10 05:38:00;;;;;;;16.17;11.48;;;22.90;39.10;;;;;;6165835;28;83431;-61
2023/12/10 05:41:01;;;;;;;16.70;11.20;;;22.90;39.00;;;;;;6164332;28;82945;-60
2023/12/10 05:44:02;;;;;;;19.92;12.45;;;22.90;38.90;;;;;;6155879;28;85184;-59
2023/12/10 05:47:02;;;;;;;18.90;11.63;;;22.90;38.90;;;;;;6145130;28;85076;-60
2023/12/10 05:50:03;;;;;;;17.77;12.02;;;22.90;39.00;;;;;;6173043;28;84302;-60
2023/12/10 05:53:03;;;;;;;18.10;12.70;;;22.90;39.00;;;;;;6174472;28;83048;-60
2023/12/10 05:56:04;;;;;;;17.60;11.07;;;22.90;38.90;;;;;;6174404;28;84116;-62
2023/12/10 05:59:04;;;;;;;18.50;11.57;;;22.90;38.90;;;;;;6171282;28;83368;-62
2023/12/10 06:02:05;;;;;;;17.90;12.38;;;22.90;38.90;;;;;;6169632;28;83198;-60
2023/12/10 06:05:05;;;;;;;22.10;11.80;;;22.90;38.90;;;;;;6152256;28;83733;-61
2023/12/10 06:08:06;;;;;;;19.17;12.52;;;22.90;38.70;;;;;;6154984;28;84060;-61
2023/12/10 06:11:06;;;;;;;18.48;11.63;;;22.90;38.70;;;;;;6153064;28;85862;-61
2023/12/10 06:14:07;;;;;;;16.63;10.77;;;22.90;38.80;;;;;;6153575;28;84490;-62
2023/12/10 06:17:09;;;;;;;19.30;10.95;;;22.90;38.80;;;;;;6155531;28;83001;-61
2023/12/10 06:20:10;;;;;;;15.20;10.27;;;22.90;38.90;;;;;;6166636;28;83054;-61
2023/12/10 06:23:10;;;;;;;19.55;11.27;;;22.90;38.90;;;;;;6168739;28;83572;-61
2023/12/10 06:26:11;;;;;;;16.67;10.90;;;22.90;39.00;;;;;;6152129;28;89934;-60
2023/12/10 06:29:12;;;;;;;15.88;10.82;;;22.90;39.00;;;;;;6168924;28;84375;-61
2023/12/10 06:32:12;;;;;;;16.10;10.80;;;22.90;38.90;;;;;;6165772;28;83116;-63
2023/12/10 06:35:13;;;;;;;15.63;10.93;;;22.90;38.90;;;;;;6174704;28;83096;-63
2023/12/10 06:38:13;;;;;;;17.17;10.88;;;22.90;39.10;;;;;;6161087;28;84312;-64
2023/12/10 06:41:14;;;;;;;16.33;11.00;;;22.90;39.10;;;;;;6172547;28;83672;-63
2023/12/10 06:44:21;;;;;;;15.80;11.10;;;22.90;39.20;;;;;;6172830;28;83158;-62
2023/12/10 06:47:21;;;;;;;16.25;11.35;;;22.90;39.50;;;;;;6174489;28;82859;-62
2023/12/10 06:50:22;;;;;;;17.10;11.05;;;22.90;39.60;;;;;;6174412;28;85936;-62
2023/12/10 06:53:23;;;;;;;15.98;9.77;;;22.80;39.70;;;;;;6173357;28;83285;-63
2023/12/10 06:56:24;;;;;;;17.15;11.10;;;22.90;39.70;;;;;;6176224;28;83480;-63
2023/12/10 06:59:24;;;;;;;15.00;10.05;;;22.80;39.10;;;;;;6174014;28;83363;-63
2023/12/10 07:02:25;;;;;;;15.35;10.43;;;22.80;39.00;;;;;;6167643;28;83216;-62
2023/12/10 07:05:26;;;;;;;18.00;11.00;;;22.80;38.50;;;;;;6164695;28;87696;-61
2023/12/10 07:08:26;;;;;;;18.17;11.38;;;22.70;38.50;;;;;;6165619;28;84381;-62
2023/12/10 07:11:27;;;;;;;16.38;10.50;;;22.70;38.70;;;;;;6162706;28;83451;-62
2023/12/10 07:14:27;;;;;;;17.88;10.93;;;22.70;39.60;;;;;;6173671;28;83389;-61
2023/12/10 07:17:28;;;;;;;18.13;10.45;;;22.70;39.70;;;;;;6172833;28;83470;-60
2023/12/10 07:20:28;;;;;;;17.23;10.43;;;22.60;39.30;;;;;;6173557;28;83536;-61
2023/12/10 07:23:29;;;;;;;16.88;10.77;;;22.60;39.10;;;;;;6171161;28;84770;-60
2023/12/10 07:26:30;;;;;;;16.20;10.55;;;22.60;39.20;;;;;;6166711;28;83915;-66
2023/12/10 07:29:30;;;;;;;16.42;10.35;;;22.60;39.20;;;;;;6166018;28;84545;-65
2023/12/10 07:32:31;;;;;;;15.52;9.93;;;22.60;39.40;;;;;;6172911;28;84258;-66
2023/12/10 07:35:31;;;;;;;19.63;10.48;;;22.60;39.20;;;;;;6166452;28;83510;-62
2023/12/10 07:38:32;;;;;;;14.23;10.38;;;22.60;39.30;;;;;;6173263;28;83909;-68
2023/12/10 07:41:32;;;;;;;21.00;9.75;;;22.50;39.60;;;;;;6171723;28;83360;-62
2023/12/10 07:44:33;;;;;;;20.95;9.48;;;22.50;40.80;;;;;;6176194;28;82985;-62
2023/12/10 07:47:33;;;;;;;17.35;9.75;;;22.50;41.20;;;;;;6175451;28;80787;-61
2023/12/10 07:50:34;;;;;;;14.45;9.77;;;22.60;41.00;;;;;;6176870;28;80872;-60
2023/12/10 07:53:34;;;;;;;13.90;9.07;;;22.60;41.20;;;;;;6174759;28;81271;-62
2023/12/10 07:56:35;;;;;;;16.30;9.73;;;22.60;41.70;;;;;;6175263;28;80326;-61
2023/12/10 07:59:35;;;;;;;14.27;9.30;;;22.60;43.60;;;;;;6167456;28;81784;-62
2023/12/10 08:02:36;;;;;;;14.73;8.80;;;22.70;44.00;;;;;;6169622;28;80624;-60
2023/12/10 08:05:36;;;;;;;16.65;9.60;;;22.70;43.80;;;;;;6168697;28;81512;-60
2023/12/10 08:08:37;;;;;;;21.05;9.45;;;22.70;44.00;;;;;;6175725;28;80950;-60
2023/12/10 08:11:37;;;;;;;17.02;8.93;;;22.70;44.10;;;;;;6175907;28;80800;-61
2023/12/10 08:14:38;;;;;;;14.23;9.27;;;22.70;43.50;;;;;;6176662;28;80551;-61
2023/12/10 08:17:39;;;;;;;13.75;9.02;;;22.70;43.70;;;;;;6175610;28;80395;-62
2023/12/10 08:20:40;;;;;;;13.10;8.80;;;22.70;43.60;;;;;;6175448;28;82520;-59
2023/12/10 08:23:40;;;;;;;18.98;10.43;;;22.70;43.40;;;;;;6174960;28;80656;-63
2023/12/10 08:26:41;;;;;;;14.77;8.23;;;22.70;43.70;;;;;;6171346;28;87152;-60
2023/12/10 08:29:41;;;;;;;18.77;9.00;;;22.70;44.30;;;;;;6169707;28;83009;-60
2023/12/10 08:32:42;;;;;;;15.07;9.57;;;22.70;43.90;;;;;;6173878;28;81930;-60
2023/12/10 08:35:42;;;;;;;16.88;9.35;;;22.70;44.10;;;;;;6172059;28;80715;-61
2023/12/10 08:38:43;;;;;;;16.13;9.35;;;22.80;43.30;;;;;;6157999;28;81421;-59
2023/12/10 08:41:43;;;;;;;15.15;8.80;;;22.80;43.40;;;;;;6118794;28;86249;-62
2023/12/10 08:44:44;;;;;;;21.00;9.50;;;22.80;43.40;;;;;;6144391;28;87618;-61
2023/12/10 08:47:44;;;;;;;19.95;9.20;;;22.90;43.70;;;;;;6141109;28;83433;-60
2023/12/10 08:50:45;;;;;;;18.77;8.35;;;22.90;43.70;;;;;;6157204;28;80800;-60
2023/12/10 08:53:45;;;;;;;16.30;8.55;;;23.00;43.70;;;;;;6142721;28;81095;-59
2023/12/10 08:56:46;;;;;;;17.75;7.80;;;23.00;43.70;;;;;;6155579;28;84604;-63
2023/12/10 08:59:46;;;;;;;15.13;8.63;;;23.00;43.70;;;;;;6161183;28;80599;-62
2023/12/10 09:02:47;;;;;;;13.52;7.70;;;23.00;43.50;;;;;;6161088;28;80937;-61
2023/12/10 09:05:47;;;;;;;13.68;7.20;;;23.00;43.20;;;;;;6166099;28;80178;-61
2023/12/10 09:08:48;;;;;;;12.80;7.88;;;23.10;43.00;;;;;;6165477;28;80599;-63
2023/12/10 09:11:48;;;;;;;12.38;8.02;;;23.10;43.00;;;;;;6162066;28;83600;-63
2023/12/10 09:14:49;;;;;;;11.68;7.75;;;23.10;42.70;;;;;;6163048;28;81397;-60
2023/12/10 09:17:50;;;;;;;13.45;8.45;;;23.10;42.50;;;;;;6174619;28;83122;-61
2023/12/10 09:20:50;;;;;;;10.32;6.90;;;23.10;42.50;;;;;;6154135;28;81978;-60
2023/12/10 09:23:51;;;;;;;17.85;8.35;;;23.10;42.50;;;;;;6158513;28;81383;-60
2023/12/10 09:26:51;;;;;;;10.60;7.05;;;23.10;42.40;;;;;;6152426;28;80407;-59
2023/12/10 09:29:52;;;;;;;8.88;6.50;;;23.10;42.40;;;;;;6150283;28;82173;-61
2023/12/10 09:32:52;;;;;;;8.40;6.28;;;23.10;42.20;;;;;;6165611;28;80408;-59
2023/12/10 09:35:53;;;;;;;11.80;7.40;;;23.10;42.30;;;;;;6164479;28;80732;-59
2023/12/10 09:38:54;;;;;;;10.98;6.97;;;23.00;42.30;;;;;;6166870;28;81181;-62
2023/12/10 09:41:54;;;;;;;10.55;6.05;;;23.00;42.30;;;;;;6172429;28;81796;-62
2023/12/10 09:44:55;;;;;;;14.13;6.07;;;23.00;42.00;;;;;;6169886;28;81057;-58
2023/12/10 09:47:55;;;;;;;10.18;7.30;;;23.00;42.00;;;;;;6174731;28;81020;-59
2023/12/10 09:50:56;;;;;;;13.23;7.07;;;23.00;42.10;;;;;;6149121;28;83131;-60
2023/12/10 09:53:56;;;;;;;12.25;6.28;;;23.00;41.20;;;;;;6148516;28;83668;-60
2023/12/10 09:56:57;;;;;;;9.13;7.03;;;23.00;41.10;;;;;;6151279;28;80778;-60
2023/12/10 09:59:57;;;;;;;9.05;6.20;;;22.90;41.30;;;;;;6157094;28;80171;-60
2023/12/10 10:02:58;;;;;;;9.90;6.10;;;23.00;41.70;;;;;;6160898;28;80440;-58
2023/12/10 10:05:58;;;;;;;8.68;5.78;;;22.90;41.40;;;;;;6160500;28;81664;-59
2023/12/10 10:08:59;;;;;;;11.63;6.32;;;22.90;41.60;;;;;;6168818;28;80420;-60
2023/12/10 10:12:00;;;;;;;10.73;6.38;;;22.90;41.50;;;;;;6167829;28;80443;-59
2023/12/10 10:15:00;;;;;;;10.00;6.80;;;22.80;41.20;;;;;;6174435;28;80580;-59
2023/12/10 10:18:01;;;;;;;9.07;6.35;;;22.80;41.20;;;;;;6164299;28;87849;-59
2023/12/10 10:21:01;;;;;;;11.57;6.25;;;22.80;40.90;;;;;;6174861;28;81007;-59
2023/12/10 10:24:03;;;;;;;7.65;5.90;;;22.80;40.50;;;;;;6153606;28;80428;-59
2023/12/10 10:27:03;;;;;;;8.98;5.85;;;22.70;40.50;;;;;;6177874;28;80371;-59
2023/12/10 10:30:04;;;;;;;8.38;5.78;;;22.70;40.20;;;;;;6169790;28;81268;-59
2023/12/10 10:33:04;;;;;;;7.93;5.85;;;22.70;40.20;;;;;;6174395;28;91075;-60
2023/12/10 10:36:05;;;;;;;10.18;5.70;;;22.70;40.40;;;;;;6176596;28;80399;-59
2023/12/10 10:39:07;;;;;;;7.88;5.32;;;22.70;40.10;;;;;;6159002;28;80822;-56
2023/12/10 10:42:09;;;;;;;9.23;6.78;;;22.70;40.00;;;;;;6153928;28;81027;-59
2023/12/10 10:45:09;;;;;;;9.13;5.85;;;22.60;40.00;;;;;;6152187;28;80288;-57
2023/12/10 10:48:10;;;;;;;12.32;5.60;;;22.70;40.90;;;;;;6164117;28;80781;-60
2023/12/10 10:51:10;;;;;;;9.63;6.05;;;22.70;40.80;;;;;;6155179;28;82201;-61
2023/12/10 10:54:11;;;;;;;9.65;5.60;;;22.70;41.40;;;;;;6158787;28;80577;-61
2023/12/10 10:57:11;;;;;;;10.85;5.90;;;22.70;41.60;;;;;;6157048;28;81134;-60
2023/12/10 11:00:12;;;;;;;12.63;6.75;;;22.70;42.50;;;;;;6156935;28;80453;-60
2023/12/10 11:03:12;;;;;;;10.38;5.43;;;22.70;42.40;;;;;;6142988;28;81869;-62
2023/12/10 11:06:13;;;;;;;11.30;5.95;;;22.70;42.30;;;;;;6157798;28;81353;-64
2023/12/10 11:09:13;;;;;;;8.95;5.75;;;22.70;42.50;;;;;;6154171;28;80822;-64
2023/12/10 11:12:14;;;;;;;9.20;6.50;;;22.70;42.50;;;;;;6150972;28;80714;-64
2023/12/10 11:15:14;;;;;;;10.23;5.68;;;22.80;42.40;;;;;;6146918;28;83329;-63
2023/12/10 11:18:15;;;;;;;12.23;6.60;;;22.70;42.60;;;;;;6138561;28;81018;-63
2023/12/10 11:21:15;;;;;;;8.30;6.07;;;22.70;43.60;;;;;;6149463;28;80876;-62
2023/12/10 11:24:16;;;;;;;11.82;6.80;;;22.80;44.30;;;;;;6154697;28;81539;-61
2023/12/10 11:27:16;;;;;;;12.32;6.65;;;22.80;43.80;;;;;;6163511;28;81120;-65
2023/12/10 11:30:17;;;;;;;10.02;6.57;;;22.90;43.80;;;;;;6155675;28;81928;-67
2023/12/10 11:33:18;;;;;;;11.52;6.55;;;22.90;44.10;;;;;;6156431;28;83539;-65
2023/12/10 11:36:18;;;;;;;12.98;6.85;;;22.90;45.00;;;;;;6155652;28;83831;-67
2023/12/10 11:39:19;;;;;;;11.23;7.07;;;22.90;45.30;;;;;;6144392;28;83162;-64
2023/12/10 11:42:19;;;;;;;13.35;7.38;;;22.90;46.10;;;;;;6149326;28;82191;-60
2023/12/10 11:45:20;;;;;;;12.02;8.07;;;22.90;46.00;;;;;;6138194;28;80892;-61
2023/12/10 11:48:20;;;;;;;13.00;8.23;;;22.90;46.40;;;;;;6149192;28;83973;-62
2023/12/10 11:51:21;;;;;;;15.57;8.55;;;22.90;46.70;;;;;;6153477;28;81605;-58
2023/12/10 11:54:21;;;;;;;12.73;8.20;;;22.90;47.80;;;;;;6155173;28;81299;-62
2023/12/10 11:57:22;;;;;;;13.32;8.65;;;23.00;48.90;;;;;;6157921;28;81332;-60
2023/12/10 12:00:22;;;;;;;13.88;8.50;;;23.00;48.20;;;;;;6157460;28;80937;-61
2023/12/10 12:03:23;;;;;;;11.30;7.70;;;23.00;48.90;;;;;;6167407;28;80966;-60
2023/12/10 12:06:23;;;;;;;12.27;8.05;;;23.10;48.80;;;;;;6174990;28;83508;-61
2023/12/10 12:09:25;;;;;;;10.93;7.35;;;23.00;48.60;;;;;;6175172;28;80552;-61
2023/12/10 12:12:27;;;;;;;14.27;7.57;;;23.00;48.50;;;;;;6171005;28;80886;-60
2023/12/10 12:15:27;;;;;;;10.02;7.22;;;23.10;48.30;;;;;;6164930;28;82098;-60
2023/12/10 12:18:28;;;;;;;12.38;7.60;;;23.00;48.30;;;;;;6170299;28;80492;-60
2023/12/10 12:21:28;;;;;;;11.35;7.20;;;23.00;47.90;;;;;;6171726;28;80773;-60
2023/12/10 12:24:29;;;;;;;13.60;6.82;;;23.00;47.70;;;;;;6173150;28;80422;-58
2023/12/10 12:27:29;;;;;;;10.45;7.22;;;23.00;47.50;;;;;;6178241;28;80454;-58
2023/12/10 12:30:30;;;;;;;8.77;6.68;;;23.00;47.50;;;;;;6167568;28;80816;-60
2023/12/10 12:33:30;;;;;;;10.30;6.50;;;23.00;47.50;;;;;;6179435;28;80373;-60
2023/12/10 12:36:31;;;;;;;11.90;7.20;;;23.00;47.20;;;;;;6179229;28;80631;-60
2023/12/10 12:39:31;;;;;;;12.27;6.95;;;23.00;46.80;;;;;;6179031;28;80534;-62
2023/12/10 12:42:32;;;;;;;10.35;6.88;;;22.90;46.30;;;;;;6178475;28;80665;-60
2023/12/10 12:45:33;;;;;;;8.95;6.70;;;22.90;46.10;;;;;;6178777;28;81607;-61
2023/12/10 12:48:33;;;;;;;10.23;6.60;;;22.90;46.00;;;;;;6173750;28;81240;-60
2023/12/10 12:51:35;;;;;;;11.43;7.45;;;22.90;45.60;;;;;;6178384;28;80456;-68
2023/12/10 12:54:36;;;;;;;9.38;6.55;;;22.90;45.70;;;;;;6177774;28;80623;-61
2023/12/10 12:57:37;;;;;;;12.63;7.07;;;22.90;45.40;;;;;;6177560;28;82068;-62
2023/12/10 13:00:37;;;;;;;18.67;6.78;;;22.90;44.90;;;;;;6178310;28;80453;-64
2023/12/10 13:03:38;;;;;;;12.15;6.90;;;22.90;45.30;;;;;;6165114;28;83566;-62
2023/12/10 13:06:38;;;;;;;10.25;6.82;;;22.80;45.30;;;;;;6178199;28;81071;-63
2023/12/10 13:09:39;;;;;;;20.17;7.05;;;22.90;45.40;;;;;;6177657;28;80497;-62
2023/12/10 13:12:39;;;;;;;16.45;7.28;;;22.90;45.90;;;;;;6178407;28;80323;-63
2023/12/10 13:15:40;;;;;;;17.75;7.18;;;22.90;45.50;;;;;;6178057;28;80681;-64
2023/12/10 13:18:40;;;;;;;14.60;7.53;;;22.90;45.40;;;;;;6170868;28;80794;-64
2023/12/10 13:21:42;;;;;;;9.95;7.55;;;22.90;45.10;;;;;;6159756;28;85028;-62
2023/12/10 13:24:42;;;;;;;11.98;6.97;;;22.80;44.90;;;;;;6163887;28;80372;-62
2023/12/10 13:27:43;;;;;;;10.40;6.32;;;22.80;44.70;;;;;;6177312;28;82378;-63
2023/12/10 13:30:43;;;;;;;14.45;7.28;;;22.80;44.30;;;;;;6170555;28;80274;-63
2023/12/10 13:33:44;;;;;;;14.13;7.10;;;22.80;44.10;;;;;;6174466;28;80774;-62
2023/12/10 13:36:45;;;;;;;11.93;6.95;;;22.80;43.90;;;;;;6169880;28;80789;-62
2023/12/10 13:39:45;;;;;;;9.82;6.65;;;22.80;43.70;;;;;;6167569;28;82698;-62
2023/12/10 13:42:46;;;;;;;9.73;6.95;;;22.80;43.40;;;;;;6165173;28;82346;-62
2023/12/10 13:45:46;;;;;;;11.70;7.05;;;22.80;43.20;;;;;;6177730;28;81303;-61
2023/12/10 13:48:48;;;;;;;10.73;6.97;;;22.80;42.90;;;;;;6165266;28;81356;-63
2023/12/10 13:51:48;;;;;;;9.75;6.75;;;22.80;42.70;;;;;;6177591;28;81497;-61
2023/12/10 13:54:49;;;;;;;10.07;6.68;;;22.80;42.60;;;;;;6166755;28;81526;-62
2023/12/10 13:57:49;;;;;;;11.07;7.30;;;22.80;42.50;;;;;;6156132;28;80034;-63
2023/12/10 14:00:50;;;;;;;8.63;6.53;;;22.80;42.60;;;;;;6166300;28;81214;-63
2023/12/10 14:03:51;;;;;;;10.82;7.07;;;22.80;42.50;;;;;;6159294;28;85497;-60
2023/12/10 14:06:51;;;;;;;9.98;6.53;;;22.80;42.30;;;;;;6178210;28;85474;-65
2023/12/10 14:09:52;;;;;;;11.60;6.57;;;22.70;42.50;;;;;;6176723;28;80554;-65
2023/12/10 14:12:52;;;;;;;8.75;6.15;;;22.70;42.30;;;;;;6179131;28;80387;-63
2023/12/10 14:15:54;;;;;;;11.70;6.88;;;22.70;42.20;;;;;;6176409;28;80575;-61
2023/12/10 14:18:55;;;;;;;10.18;6.72;;;22.70;42.10;;;;;;6176994;28;80549;-60
2023/12/10 14:21:55;;;;;;;9.77;6.40;;;22.70;42.30;;;;;;6175516;28;80476;-74
2023/12/10 14:24:56;;;;;;;10.65;6.47;;;22.70;42.70;;;;;;6175657;28;80993;-66
2023/12/10 14:27:56;;;;;;;8.20;6.07;;;22.70;43.60;;;;;;6176763;28;81309;-65
2023/12/10 14:30:57;;;;;;;8.25;6.18;;;22.70;42.90;;;;;;6163837;28;80472;-64
2023/12/10 14:33:57;;;;;;;7.90;5.85;;;22.70;42.10;;;;;;6175180;28;80565;-64
2023/12/10 14:36:58;;;;;;;10.55;6.32;;;22.70;42.10;;;;;;6149964;28;80596;-63
2023/12/10 14:39:58;;;;;;;10.48;6.30;;;22.70;42.70;;;;;;6176051;28;80270;-63
2023/12/10 14:43:00;;;;;;;9.30;5.60;;;22.70;42.90;;;;;;6177722;28;80384;-61
2023/12/10 14:46:00;;;;;;;8.00;5.47;;;22.70;43.10;;;;;;6179268;28;81700;-63
2023/12/10 14:49:01;;;;;;;15.43;6.22;;;22.70;43.20;;;;;;6162038;28;81568;-60
2023/12/10 14:52:01;;;;;;;8.02;5.88;;;22.80;43.50;;;;;;6162170;28;80890;-61
2023/12/10 14:55:02;;;;;;;9.38;5.47;;;22.80;44.20;;;;;;6169991;28;85211;-62
2023/12/10 14:58:03;;;;;;;9.20;5.50;;;22.80;44.30;;;;;;6171972;28;83071;-60
2023/12/10 15:01:04;;;;;;;8.70;5.20;;;22.80;44.80;;;;;;6153220;28;88309;-61
2023/12/10 15:04:04;;;;;;;8.40;4.65;;;22.80;45.20;;;;;;6151477;28;81139;-59
2023/12/10 15:07:05;;;;;;;7.47;4.72;;;22.90;45.60;;;;;;6149769;28;83632;-64
2023/12/10 15:10:05;;;;;;;7.32;4.63;;;22.90;45.70;;;;;;6158415;28;81013;-63
2023/12/10 15:13:06;;;;;;;10.93;5.25;;;23.00;45.50;;;;;;6161460;28;86654;-61
2023/12/10 15:16:06;;;;;;;9.07;5.10;;;23.00;45.70;;;;;;6179194;28;80940;-65
2023/12/10 15:19:07;;;;;;;7.25;4.38;;;23.10;45.80;;;;;;6175288;28;85417;-61
2023/12/10 15:22:07;;;;;;;7.78;5.25;;;23.10;45.90;;;;;;6174439;28;87517;-63